Impacts METAR Board
IDs:

KELA - Eagle Lake Arpt, TX, US

Updated at: 1000 UTC 26 May 2019
Potential Impact None Slight Moderate High
Time 25/22Z 25/23Z 26/00Z 26/01Z 26/02Z 26/03Z 26/04Z 26/05Z 26/06Z 26/07Z 26/08Z 26/09Z 26/10Z
Temp88 87 85 82 78 76 75 74 73 74 74 74 73
Dewpt68 67 68 70 71 71 72 72 72 73 73 73 72
Altim30.01 29.99 29.99 30.01 30.01 30.02 30.04 30.04 30.03 30.02 30.01 30.02 30.02
VIS10 10 10 10 10 10 10 10 7 7 7 7 5
CIG-- -- -- -- -- -- -- -- -- 18 13 -- --
CoverSCTCLRCLRCLRCLRCLRCLRCLRCLROVCOVCSCTSCT
FltCatVFRVFRVFRVFRVFRVFRVFRVFRVFRMVFRMVFRVFRMVFR
WX------------------------BR
WDir170160150160160160160160160130120140140
WSpd14 10 9 7 7 6 5 5 3 4 4 5 3
WGst17 17 14 -- -- -- -- -- -- -- -- -- --
Raw hourly METARs
KELA 252155Z AUTO 17014G17KT 10SM SCT050 31/20 A3001 RMK AO2 T03120199
KELA 252255Z AUTO 16010G17KT 10SM CLR 31/20 A2999 RMK AO2 T03060197
KELA 252355Z AUTO 15009G14KT 10SM CLR 30/20 A2999 RMK AO2 T02950198 10320 20295
KELA 260055Z AUTO 16007KT 10SM CLR 28/21 A3001 RMK AO2 T02750209
KELA 260155Z AUTO 16007KT 10SM CLR 25/22 A3001 RMK AO2 T02540215
KELA 260255Z AUTO 16006KT 10SM CLR 24/22 A3002 RMK AO2 T02420215
KELA 260355Z AUTO 16005KT 10SM CLR 24/22 A3004 RMK AO2 T02370221
KELA 260455Z AUTO 16005KT 10SM CLR 23/22 A3004 RMK AO2 T02320220
KELA 260555Z AUTO 16003KT 7SM CLR 23/22 A3003 RMK AO2 T02270220 10295 20227 403200220
KELA 260655Z AUTO 13004KT 7SM SCT013 BKN018 OVC023 23/23 A3002 RMK AO2 T02310225
KELA 260755Z AUTO 12004KT 7SM SCT007 BKN013 OVC018 23/23 A3001 RMK AO2 T02310226
KELA 260855Z AUTO 14005KT 7SM SCT008 SCT015 SCT025 23/23 A3002 RMK AO2 T02310225
KELA 260955Z AUTO 14003KT 5SM BR SCT017 23/22 A3002 RMK AO2 T02260221